createdAt,value
2019-02-25T00:01:38.736Z,24.18
2019-02-25T00:04:10.875Z,24.40
2019-02-25T00:06:43.300Z,24.57
2019-02-25T00:09:15.954Z,23.70
2019-02-25T00:11:48.001Z,23.47
2019-02-25T00:14:19.788Z,23.75
2019-02-25T00:16:51.668Z,24.63
2019-02-25T00:19:23.117Z,23.80
2019-02-25T00:21:54.790Z,23.30
2019-02-25T00:24:27.775Z,23.87
2019-02-25T00:26:59.036Z,23.12
2019-02-25T00:29:30.961Z,23.18
2019-02-25T00:32:02.834Z,21.95
2019-02-25T00:34:34.463Z,23.35
2019-02-25T00:37:05.599Z,23.77
2019-02-25T00:39:36.775Z,23.63
2019-02-25T00:42:08.041Z,23.92
2019-02-25T00:44:39.573Z,24.93
2019-02-25T00:47:11.346Z,24.67
2019-02-25T00:49:43.302Z,23.30
2019-02-25T00:52:15.400Z,24.50
2019-02-25T00:54:46.647Z,25.55
2019-02-25T00:57:19.119Z,25.80
2019-02-25T00:59:50.578Z,25.70
2019-02-25T01:02:22.053Z,25.62
2019-02-25T01:04:53.865Z,27.30
2019-02-25T01:07:25.950Z,26.57
2019-02-25T01:09:58.388Z,26.55
2019-02-25T01:12:30.810Z,26.82
2019-02-25T01:15:06.170Z,26.20
2019-02-25T01:17:38.701Z,24.92
2019-02-25T01:20:12.374Z,26.93
2019-02-25T01:22:44.872Z,27.05
2019-02-25T01:25:18.836Z,26.75
2019-02-25T01:27:53.062Z,27.62
2019-02-25T01:30:24.934Z,27.27
2019-02-25T01:32:56.187Z,26.07
2019-02-25T01:35:28.490Z,26.75
2019-02-25T01:38:02.720Z,26.55
2019-02-25T01:40:34.153Z,25.82
2019-02-25T01:43:07.281Z,26.62
2019-02-25T01:45:39.476Z,26.23
2019-02-25T01:48:11.074Z,26.27
2019-02-25T01:50:42.344Z,27.95
2019-02-25T01:53:14.517Z,26.35
2019-02-25T01:55:46.414Z,27.22
2019-02-25T01:58:20.414Z,28.23
2019-02-25T02:00:52.194Z,29.23
2019-02-25T02:03:23.082Z,30.35
2019-02-25T02:05:57.499Z,29.80
2019-02-25T02:08:31.933Z,29.55
2019-02-25T02:11:04.503Z,28.52
2019-02-25T02:13:36.875Z,27.73
2019-02-25T02:16:07.926Z,29.07
2019-02-25T02:18:41.978Z,28.95
2019-02-25T02:21:14.119Z,28.12
2019-02-25T02:23:45.470Z,26.73
2019-02-25T02:26:21.243Z,29.48
2019-02-25T02:28:53.213Z,29.23
2019-02-25T02:31:24.440Z,32.93
2019-02-25T02:33:56.218Z,33.67
2019-02-25T02:36:28.704Z,30.17
2019-02-25T02:39:01.373Z,31.27
2019-02-25T02:41:35.174Z,31.73
2019-02-25T02:44:22.802Z,31.05
2019-02-25T02:47:13.304Z,31.90
2019-02-25T02:49:45.823Z,32.42
2019-02-25T02:52:16.678Z,34.18
2019-02-25T02:54:48.251Z,36.20
2019-02-25T02:57:21.557Z,35.45
2019-02-25T02:59:59.535Z,35.28
2019-02-25T03:02:42.590Z,35.30
2019-02-25T03:05:17.763Z,34.40
2019-02-25T03:07:54.182Z,34.83
2019-02-25T03:10:29.320Z,35.43
2019-02-25T03:13:02.813Z,35.00
2019-02-25T03:16:32.785Z,36.88
2019-02-25T03:19:07.755Z,34.70
2019-02-25T03:21:46.910Z,33.83
2019-02-25T03:24:21.783Z,37.65
2019-02-25T03:26:54.207Z,34.73
2019-02-25T03:29:29.234Z,33.70
2019-02-25T03:38:39.830Z,32.60
2019-02-25T03:41:14.456Z,31.45
2019-02-25T03:43:47.704Z,32.95
2019-02-25T03:46:20.272Z,34.75
2019-02-25T03:48:52.135Z,33.83
2019-02-25T03:51:25.439Z,34.50
2019-02-25T03:53:57.152Z,35.15
2019-02-25T03:56:28.811Z,34.78
2019-02-25T03:59:00.595Z,35.95
2019-02-25T04:01:34.021Z,35.88
2019-02-25T04:04:05.809Z,35.85
2019-02-25T04:06:37.657Z,35.40
2019-02-25T04:09:10.983Z,35.05
2019-02-25T04:11:43.022Z,33.02
2019-02-25T04:14:17.282Z,34.83
2019-02-25T04:17:07.384Z,32.93
2019-02-25T04:20:00.989Z,33.42
2019-02-25T04:22:39.955Z,34.00
2019-02-25T04:25:13.461Z,33.08
2019-02-25T04:27:45.980Z,34.23
2019-02-25T04:30:17.673Z,33.20
2019-02-25T04:33:14.038Z,34.27
2019-02-25T04:35:44.371Z,33.53
2019-02-25T04:38:17.450Z,34.33
2019-02-25T04:40:52.598Z,33.13
2019-02-25T04:43:25.134Z,33.00
2019-02-25T04:45:57.529Z,32.65
2019-02-25T04:48:29.936Z,31.62
2019-02-25T04:51:23.307Z,34.60
2019-02-25T04:54:01.661Z,31.57
2019-02-25T04:56:33.080Z,33.30
2019-02-25T04:59:12.713Z,34.67
2019-02-25T05:01:45.959Z,33.88
2019-02-25T05:04:17.553Z,34.35
2019-02-25T05:06:49.438Z,33.45
2019-02-25T05:09:21.068Z,34.05
2019-02-25T05:11:52.250Z,36.50
2019-02-25T05:14:36.817Z,37.28
2019-02-25T05:17:08.227Z,36.05
2019-02-25T05:19:41.197Z,36.03
2019-02-25T05:22:42.210Z,37.73
2019-02-25T05:25:14.980Z,33.58
2019-02-25T05:27:46.683Z,36.75
2019-02-25T05:30:18.402Z,36.20
2019-02-25T05:32:50.098Z,35.23
2019-02-25T05:35:21.233Z,35.78
2019-02-25T05:37:56.226Z,37.05
2019-02-25T05:40:26.898Z,37.20
2019-02-25T05:42:57.393Z,38.75
2019-02-25T05:45:28.886Z,38.45
2019-02-25T05:47:59.726Z,39.58
2019-02-25T05:50:30.822Z,40.35
2019-02-25T05:53:01.183Z,41.77
2019-02-25T05:55:31.746Z,40.23
2019-02-25T05:58:02.489Z,40.88
2019-02-25T06:00:33.993Z,39.42
2019-02-25T06:03:04.635Z,42.85
2019-02-25T06:05:34.953Z,40.40
2019-02-25T06:08:05.360Z,41.50
2019-02-25T06:10:35.882Z,38.80
2019-02-25T06:13:08.251Z,40.03
2019-02-25T06:15:38.712Z,40.63
2019-02-25T06:18:10.372Z,40.00
2019-02-25T06:20:41.630Z,41.35
2019-02-25T06:23:12.441Z,39.58
2019-02-25T06:25:43.075Z,37.58
2019-02-25T06:28:14.713Z,40.28
2019-02-25T06:30:46.608Z,39.98
2019-02-25T06:33:19.020Z,41.25
2019-02-25T06:35:50.969Z,39.00
2019-02-25T06:38:22.538Z,38.02
2019-02-25T06:40:54.032Z,37.20
2019-02-25T06:43:29.869Z,39.63
2019-02-25T06:46:00.944Z,41.60
2019-02-25T06:48:33.313Z,40.28
2019-02-25T06:51:06.386Z,41.73
2019-02-25T06:53:37.311Z,41.83
2019-02-25T06:56:08.554Z,42.70
2019-02-25T06:58:40.639Z,45.05
2019-02-25T07:01:12.345Z,44.18
2019-02-25T07:03:44.840Z,47.48
2019-02-25T07:06:27.390Z,51.30
2019-02-25T07:09:18.261Z,45.15
2019-02-25T07:12:02.206Z,48.50
2019-02-25T07:14:47.370Z,46.65
2019-02-25T07:17:36.541Z,43.70
2019-02-25T07:50:21.824Z,49.25
2019-02-25T07:53:00.338Z,48.10
2019-02-25T07:55:42.459Z,50.78
2019-02-25T07:58:18.741Z,50.50
2019-02-25T08:00:54.622Z,51.65
2019-02-25T08:07:05.952Z,49.33
2019-02-25T08:16:16.607Z,50.47
2019-02-25T08:18:49.439Z,50.30
2019-02-25T08:21:27.547Z,51.43
2019-02-25T08:24:16.918Z,53.10
2019-02-25T08:27:06.596Z,51.87
2019-02-25T08:30:04.162Z,51.73
2019-02-25T08:32:43.701Z,51.07
2019-02-25T08:36:10.554Z,51.03
2019-02-25T08:45:13.336Z,50.23
2019-02-25T08:47:49.708Z,46.20
2019-02-25T08:50:24.238Z,47.80
2019-02-25T08:52:55.714Z,45.67
2019-02-25T08:55:58.299Z,45.80
2019-02-25T09:01:51.752Z,46.20
2019-02-25T09:04:22.609Z,47.30
2019-02-25T09:08:19.564Z,49.33
2019-02-25T09:09:39.426Z,46.40
2019-02-25T09:12:11.836Z,45.77
2019-02-25T09:14:43.015Z,45.67
2019-02-25T09:17:16.242Z,45.27
2019-02-25T09:19:47.115Z,44.20
2019-02-25T09:22:18.152Z,47.40
2019-02-25T09:24:50.711Z,46.20
2019-02-25T09:27:23.909Z,44.60
2019-02-25T09:29:54.936Z,48.37
2019-02-25T09:32:55.269Z,46.47
2019-02-25T09:38:56.912Z,44.73
2019-02-25T09:41:30.264Z,46.27
2019-02-25T09:44:01.564Z,46.17
2019-02-25T09:46:32.903Z,46.73
2019-02-25T09:49:03.607Z,44.83
2019-02-25T09:51:34.590Z,44.67
2019-02-25T09:54:05.907Z,45.60
2019-02-25T09:56:38.180Z,46.53
2019-02-25T09:59:10.385Z,46.43
2019-02-25T10:01:42.507Z,45.57
2019-02-25T10:04:16.031Z,45.17
2019-02-25T10:06:47.408Z,42.67
2019-02-25T10:09:19.109Z,42.53
2019-02-25T10:11:51.572Z,44.17
2019-02-25T10:14:25.187Z,41.23
2019-02-25T10:16:56.115Z,42.60
2019-02-25T10:19:27.412Z,41.90
2019-02-25T10:21:58.889Z,39.97
2019-02-25T10:24:31.692Z,40.07
2019-02-25T10:27:02.100Z,38.77
2019-02-25T10:29:32.561Z,37.43
2019-02-25T10:32:04.853Z,38.63
2019-02-25T10:34:35.511Z,38.40
2019-02-25T10:37:10.889Z,37.23
2019-02-25T10:39:41.213Z,38.13
2019-02-25T10:42:13.079Z,32.93
2019-02-25T10:44:44.980Z,32.57
2019-02-25T10:47:18.988Z,32.57
2019-02-25T10:49:49.792Z,30.93
2019-02-25T10:52:20.946Z,31.00
2019-02-25T10:54:52.456Z,30.00
2019-02-25T10:57:27.203Z,29.03
2019-02-25T10:59:56.980Z,27.97
2019-02-25T11:02:29.860Z,30.10
2019-02-25T11:05:03.396Z,30.47
2019-02-25T11:07:39.365Z,31.37
2019-02-25T11:10:13.971Z,29.77
2019-02-25T11:12:53.845Z,31.13
2019-02-25T11:15:33.761Z,26.87
2019-02-25T11:18:09.336Z,28.43
2019-02-25T11:20:41.256Z,26.73
2019-02-25T11:23:28.658Z,26.23
2019-02-25T11:29:35.551Z,27.47
2019-02-25T11:32:07.936Z,28.80
2019-02-25T11:34:39.979Z,27.20
2019-02-25T11:37:11.600Z,27.57
2019-02-25T11:39:45.198Z,26.03
2019-02-25T11:42:20.344Z,24.90
2019-02-25T11:44:51.795Z,25.30
2019-02-25T11:47:25.043Z,26.97
2019-02-25T11:50:39.075Z,28.33
2019-02-25T11:53:12.526Z,27.17
2019-02-25T11:55:55.908Z,26.97
2019-02-25T11:58:34.249Z,27.83
2019-02-25T12:01:09.111Z,28.73
2019-02-25T12:03:41.661Z,29.40
2019-02-25T12:06:12.574Z,27.43
2019-02-25T12:08:44.709Z,28.60
2019-02-25T12:11:18.170Z,27.20
2019-02-25T12:13:49.355Z,27.83
2019-02-25T12:16:21.781Z,28.37
2019-02-25T12:18:53.767Z,29.57
2019-02-25T12:21:25.983Z,29.60
2019-02-25T12:23:57.962Z,30.63
2019-02-25T12:26:29.109Z,28.77
2019-02-25T12:29:08.491Z,31.10
2019-02-25T12:31:35.900Z,30.93
2019-02-25T12:34:07.815Z,31.73
2019-02-25T12:36:39.051Z,32.03
2019-02-25T12:39:10.022Z,31.03
2019-02-25T12:41:43.137Z,30.03
2019-02-25T12:44:14.419Z,31.20
2019-02-25T12:46:46.312Z,32.67
2019-02-25T12:49:18.058Z,32.70
2019-02-25T12:51:49.928Z,31.90
2019-02-25T12:54:23.653Z,30.10
2019-02-25T12:56:54.784Z,29.57
2019-02-25T13:00:15.771Z,31.23
2019-02-25T13:02:49.074Z,31.60
2019-02-25T13:05:24.863Z,31.33
2019-02-25T13:11:47.677Z,31.17
2019-02-25T13:14:22.834Z,31.87
2019-02-25T13:16:56.773Z,32.40
2019-02-25T13:19:35.342Z,30.67
2019-02-25T13:22:10.276Z,34.23
2019-02-25T13:24:48.574Z,31.90
2019-02-25T13:27:20.593Z,34.73
2019-02-25T13:29:52.693Z,33.70
2019-02-25T13:32:27.793Z,32.70
2019-02-25T13:35:00.448Z,33.60
2019-02-25T13:37:32.679Z,34.43
2019-02-25T13:40:08.925Z,35.40
2019-02-25T13:42:44.897Z,35.43
2019-02-25T13:45:23.786Z,38.60
2019-02-25T13:47:59.522Z,40.97
2019-02-25T13:50:32.875Z,39.90
2019-02-25T13:53:08.297Z,39.30
2019-02-25T13:55:41.057Z,41.00
2019-02-25T13:58:17.495Z,42.43
2019-02-25T14:00:50.617Z,43.53
2019-02-25T14:03:27.248Z,41.83
2019-02-25T14:06:04.878Z,41.77
2019-02-25T14:08:38.705Z,40.10
2019-02-25T14:11:13.168Z,49.70
2019-02-25T14:13:45.257Z,37.53
2019-02-25T14:16:19.688Z,38.17
2019-02-25T14:18:53.071Z,36.50
2019-02-25T14:21:26.696Z,35.80
2019-02-25T14:24:00.624Z,36.23
2019-02-25T14:26:35.227Z,35.80
2019-02-25T14:29:08.700Z,36.13
2019-02-25T14:31:40.906Z,36.20
2019-02-25T14:34:17.778Z,36.00
2019-02-25T14:36:52.473Z,36.60
2019-02-25T14:39:28.443Z,37.17
2019-02-25T14:41:59.269Z,37.43
2019-02-25T14:44:35.215Z,35.97
2019-02-25T14:47:19.325Z,37.00
2019-02-25T14:49:41.081Z,34.80
2019-02-25T14:52:13.591Z,34.77
2019-02-25T14:54:46.247Z,35.57
2019-02-25T14:57:20.389Z,35.57
2019-02-25T14:59:57.073Z,34.33
2019-02-25T15:02:30.438Z,33.90
2019-02-25T15:05:08.645Z,38.00
2019-02-25T15:07:40.636Z,35.40
2019-02-25T15:10:14.070Z,35.23
2019-02-25T15:16:22.744Z,33.43
2019-02-25T15:18:58.591Z,35.03
2019-02-25T15:21:35.492Z,33.10
2019-02-25T15:24:12.202Z,35.70
2019-02-25T15:26:44.385Z,34.43
2019-02-25T15:29:48.951Z,35.53
2019-02-25T15:32:25.888Z,33.07
2019-02-25T15:35:05.259Z,33.70
2019-02-25T15:37:57.339Z,34.20
2019-02-25T15:40:28.365Z,34.83
2019-02-25T15:43:13.194Z,34.70
2019-02-25T15:45:48.475Z,32.70
2019-02-25T15:48:23.590Z,33.63
2019-02-25T15:50:58.582Z,34.17
2019-02-25T15:53:32.615Z,31.63
2019-02-25T15:56:05.985Z,32.40
2019-02-25T15:58:47.045Z,31.70
2019-02-25T16:01:20.246Z,32.37
2019-02-25T16:03:51.988Z,33.20
2019-02-25T16:06:26.988Z,31.77
2019-02-25T16:08:58.785Z,34.67
2019-02-25T16:11:34.308Z,34.23
2019-02-25T16:14:07.183Z,35.33
2019-02-25T16:16:38.727Z,33.23
2019-02-25T16:19:13.545Z,31.47
2019-02-25T16:21:45.372Z,32.77
2019-02-25T16:24:18.594Z,32.03
2019-02-25T16:26:49.857Z,30.50
2019-02-25T16:29:22.406Z,31.27
2019-02-25T16:31:55.199Z,30.97
2019-02-25T16:34:27.213Z,31.70
2019-02-25T16:37:00.219Z,31.33
2019-02-25T16:39:31.396Z,31.60
2019-02-25T16:42:02.950Z,30.80
2019-02-25T16:44:35.064Z,29.73
2019-02-25T16:47:07.896Z,32.13
2019-02-25T16:49:42.219Z,31.10
2019-02-25T16:52:15.815Z,30.37
2019-02-25T16:54:46.839Z,32.57
2019-02-25T16:57:18.582Z,32.40
2019-02-25T16:59:53.327Z,32.33
2019-02-25T17:02:23.988Z,32.90
2019-02-25T17:04:55.624Z,32.17
2019-02-25T17:07:32.687Z,32.30
2019-02-25T17:10:08.086Z,32.03
2019-02-25T17:12:41.350Z,32.60
2019-02-25T17:15:20.847Z,33.17
2019-02-25T17:18:00.341Z,30.43
2019-02-25T17:20:33.772Z,32.13
2019-02-25T17:23:10.266Z,31.80
2019-02-25T17:25:46.592Z,31.13
2019-02-25T17:28:20.327Z,33.30
2019-02-25T17:30:57.940Z,32.77
2019-02-25T17:33:32.604Z,31.93
2019-02-25T17:36:09.769Z,33.63
2019-02-25T17:38:42.789Z,32.50
2019-02-25T17:41:15.689Z,32.67
2019-02-25T17:43:49.741Z,33.43
2019-02-25T17:46:28.731Z,34.07
2019-02-25T17:49:01.260Z,33.27
2019-02-25T17:51:35.796Z,32.63
2019-02-25T17:54:10.127Z,33.87
2019-02-25T17:56:43.131Z,34.10
2019-02-25T17:59:20.679Z,33.63
2019-02-25T18:01:56.326Z,32.73
2019-02-25T18:04:30.474Z,33.80
2019-02-25T18:07:05.363Z,32.77
2019-02-25T18:09:39.998Z,33.97
2019-02-25T18:12:14.779Z,32.87
2019-02-25T18:14:50.772Z,34.00
2019-02-25T18:17:24.640Z,35.40
2019-02-25T18:19:59.113Z,33.87
2019-02-25T18:22:33.212Z,33.33
2019-02-25T18:25:10.243Z,32.20
2019-02-25T18:27:43.939Z,34.37
2019-02-25T18:30:24.504Z,35.73
2019-02-25T18:33:00.971Z,33.63
2019-02-25T18:35:36.846Z,33.07
2019-02-25T18:38:13.450Z,33.00
2019-02-25T18:40:51.330Z,34.23
2019-02-25T18:43:28.254Z,33.60
2019-02-25T18:46:05.025Z,34.27
2019-02-25T18:48:56.391Z,35.07
2019-02-25T18:51:45.696Z,32.47
2019-02-25T18:54:36.948Z,32.00
2019-02-25T18:57:18.850Z,35.30
2019-02-25T18:59:51.644Z,32.67
2019-02-25T19:02:23.411Z,33.67
2019-02-25T19:04:54.375Z,34.00
2019-02-25T19:07:27.312Z,32.93
2019-02-25T19:09:58.431Z,34.53
2019-02-25T19:12:31.629Z,34.77
2019-02-25T19:15:04.743Z,34.93
2019-02-25T19:17:37.344Z,34.73
2019-02-25T19:20:11.701Z,33.67
2019-02-25T19:22:44.617Z,35.43
2019-02-25T19:25:25.300Z,33.83
2019-02-25T19:27:58.932Z,32.50
2019-02-25T19:30:32.113Z,33.07
2019-02-25T19:33:11.016Z,34.53
2019-02-25T19:35:40.858Z,34.47
2019-02-25T19:38:14.634Z,37.07
2019-02-25T19:40:51.293Z,40.27
2019-02-25T19:43:21.091Z,40.37
2019-02-25T19:45:53.027Z,36.73
2019-02-25T19:48:28.684Z,39.10
2019-02-25T19:51:00.914Z,38.63
2019-02-25T19:53:35.830Z,35.57
2019-02-25T19:56:05.462Z,35.47
2019-02-25T19:58:39.247Z,37.10
2019-02-25T20:01:11.069Z,35.93
2019-02-25T20:03:45.177Z,35.00
2019-02-25T20:06:18.602Z,35.43
2019-02-25T20:08:51.581Z,35.33
2019-02-25T20:11:25.829Z,34.20
2019-02-25T20:14:00.956Z,34.10
2019-02-25T20:16:32.954Z,35.20
2019-02-25T20:19:06.360Z,35.70
2019-02-25T20:21:38.728Z,36.37
2019-02-25T20:24:14.448Z,34.37
2019-02-25T20:26:48.605Z,36.40
2019-02-25T20:29:19.554Z,35.80
2019-02-25T20:31:51.779Z,33.43
2019-02-25T20:34:32.097Z,36.27
2019-02-25T20:37:06.903Z,36.97
2019-02-25T20:39:40.473Z,37.23
2019-02-25T20:42:17.299Z,35.33
2019-02-25T20:44:52.716Z,36.33
2019-02-25T20:47:22.747Z,38.07
2019-02-25T20:49:56.092Z,36.40
2019-02-25T20:52:28.150Z,35.67
2019-02-25T20:55:01.073Z,36.33
2019-02-25T20:57:33.768Z,36.37
2019-02-25T21:00:05.793Z,35.57
2019-02-25T21:02:37.563Z,35.63
2019-02-25T21:05:14.075Z,35.13
2019-02-25T21:07:45.515Z,36.00
2019-02-25T21:10:20.479Z,35.63
2019-02-25T21:12:53.040Z,35.03
2019-02-25T21:15:26.377Z,36.27
2019-02-25T21:17:59.930Z,36.03
2019-02-25T21:20:31.434Z,35.03
2019-02-25T21:23:05.548Z,37.17
2019-02-25T21:29:02.524Z,33.70
2019-02-25T21:31:35.534Z,35.50
2019-02-25T21:34:07.461Z,37.07
2019-02-25T21:36:40.382Z,35.90
2019-02-25T21:39:14.533Z,37.10
2019-02-25T21:41:45.965Z,37.37
2019-02-25T21:44:19.113Z,38.60
2019-02-25T21:46:52.239Z,38.47
2019-02-25T21:49:24.970Z,38.30
2019-02-25T21:52:00.251Z,36.67
2019-02-25T21:54:33.934Z,38.93
2019-02-25T21:57:07.483Z,36.67
2019-02-25T21:59:44.768Z,34.97
2019-02-25T22:02:24.203Z,34.90
2019-02-25T22:04:56.620Z,35.03
2019-02-25T22:07:29.465Z,34.93
2019-02-25T22:10:00.925Z,35.03
2019-02-25T22:12:35.226Z,35.97
2019-02-25T22:15:08.555Z,34.63
2019-02-25T22:17:44.025Z,36.73
2019-02-25T22:20:16.667Z,35.57
2019-02-25T22:22:52.357Z,34.67
2019-02-25T22:25:24.411Z,37.93
2019-02-25T22:27:56.807Z,35.47
2019-02-25T22:30:28.381Z,37.63
2019-02-25T22:33:02.993Z,36.53
2019-02-25T22:35:37.363Z,36.33
2019-02-25T22:38:08.999Z,38.95
2019-02-25T22:40:41.984Z,40.57
2019-02-25T22:43:14.204Z,37.67
2019-02-25T22:45:49.179Z,38.53
2019-02-25T22:48:23.195Z,36.63
2019-02-25T22:51:00.021Z,38.27
2019-02-25T22:53:36.634Z,40.33
2019-02-25T22:59:44.607Z,35.33
2019-02-25T23:02:16.797Z,37.42
2019-02-25T23:04:51.822Z,37.80
2019-02-25T23:10:51.514Z,36.00
2019-02-25T23:13:27.357Z,38.97
2019-02-25T23:15:59.650Z,39.60
2019-02-25T23:18:32.601Z,40.67
2019-02-25T23:21:04.438Z,39.10
2019-02-25T23:23:37.482Z,38.67
2019-02-25T23:26:10.434Z,40.30
2019-02-25T23:28:43.980Z,39.93
2019-02-25T23:31:16.074Z,39.98
2019-02-25T23:33:48.965Z,41.73
2019-02-25T23:36:26.437Z,41.20
2019-02-25T23:38:57.155Z,41.00
2019-02-25T23:41:32.139Z,42.77
2019-02-25T23:44:07.131Z,41.73
2019-02-25T23:46:40.741Z,40.53
2019-02-25T23:49:13.318Z,40.63
2019-02-25T23:51:50.678Z,41.27
2019-02-25T23:54:23.257Z,43.40
2019-02-25T23:57:23.778Z,42.43
